Time;durP1;ratioP1;P1;durP2;ratioP2;P2;SDS_P1;SDS_P2;PMS_P1;PMS_P2;Temp;Humidity;BMP_temperature;BMP_pressure;BME280_temperature;BME280_humidity;BME280_pressure;Samples;Min_cycle;Max_cycle;Signal;HPM_P1;HPM_P2
2022/08/06 00:00:53;;;;;;;5.15;3.42;;;;;;;;;;5015974;28;20060;-39
2022/08/06 00:03:23;;;;;;;6.50;3.40;;;;;;;;;;5015957;28;20077;-38
2022/08/06 00:05:51;;;;;;;4.53;3.00;;;;;;;;;;5016095;28;20049;-39
2022/08/06 00:08:21;;;;;;;6.70;3.10;;;;;;;;;;5015611;28;20054;-39
2022/08/06 00:11:02;;;;;;;6.32;3.20;;;;;;;;;;5015439;28;20081;-39
2022/08/06 00:13:31;;;;;;;4.70;3.08;;;;;;;;;;5015440;28;20053;-39
2022/08/06 00:16:01;;;;;;;5.55;3.20;;;;;;;;;;5035187;28;20048;-39
2022/08/06 00:18:31;;;;;;;7.93;3.53;;;;;;;;;;5034575;28;20524;-39
2022/08/06 00:20:59;;;;;;;4.95;2.90;;;;;;;;;;5034836;28;20103;-39
2022/08/06 00:23:26;;;;;;;5.50;2.80;;;;;;;;;;5034851;28;20084;-39
2022/08/06 00:26:04;;;;;;;6.05;3.08;;;;;;;;;;5034681;28;20076;-38
2022/08/06 00:28:36;;;;;;;5.10;3.13;;;;;;;;;;5022539;28;20365;-39
2022/08/06 00:31:04;;;;;;;5.45;2.72;;;;;;;;;;5035064;28;20068;-38
2022/08/06 00:33:33;;;;;;;4.57;2.83;;;;;;;;;;5034597;28;20068;-39
2022/08/06 00:36:01;;;;;;;6.80;3.50;;;;;;;;;;5034439;28;20431;-39
2022/08/06 00:38:27;;;;;;;4.75;2.88;;;;;;;;;;5033894;28;20695;-39
2022/08/06 00:40:58;;;;;;;4.47;2.80;;;;;;;;;;5034454;28;20049;-39
2022/08/06 00:43:27;;;;;;;4.03;3.08;;;;;;;;;;5033548;28;20053;-41
2022/08/06 00:45:54;;;;;;;5.00;2.30;;;;;;;;;;5033759;28;20049;-39
2022/08/06 00:48:23;;;;;;;5.07;2.65;;;;;;;;;;5034242;28;20397;-39
2022/08/06 00:50:53;;;;;;;3.80;2.33;;;;;;;;;;5035053;28;20057;-39
2022/08/06 00:53:23;;;;;;;8.25;2.78;;;;;;;;;;5034962;28;20132;-39
2022/08/06 00:55:51;;;;;;;3.33;2.60;;;;;;;;;;5035058;28;20049;-39
2022/08/06 00:58:21;;;;;;;4.45;2.72;;;;;;;;;;5035176;28;20115;-38
2022/08/06 01:00:52;;;;;;;4.28;2.50;;;;;;;;;;5035379;28;20557;-39
2022/08/06 01:03:21;;;;;;;6.60;2.83;;;;;;;;;;5034748;28;20446;-40
2022/08/06 01:05:51;;;;;;;5.97;2.95;;;;;;;;;;5034424;28;20046;-38
2022/08/06 01:08:21;;;;;;;4.47;2.55;;;;;;;;;;5034835;28;20522;-38
2022/08/06 01:10:48;;;;;;;5.03;2.50;;;;;;;;;;5034555;28;20053;-39
2022/08/06 01:13:15;;;;;;;4.00;2.28;;;;;;;;;;5033451;28;20053;-39
2022/08/06 01:15:46;;;;;;;3.65;2.45;;;;;;;;;;5015559;28;20076;-39
2022/08/06 01:18:22;;;;;;;6.35;2.50;;;;;;;;;;5014332;28;20460;-39
2022/08/06 01:21:03;;;;;;;7.13;2.17;;;;;;;;;;5014485;28;20050;-38
2022/08/06 01:23:39;;;;;;;3.47;1.98;;;;;;;;;;5014347;28;20489;-38
2022/08/06 01:26:26;;;;;;;4.82;2.22;;;;;;;;;;5029763;28;20059;-38
2022/08/06 01:29:04;;;;;;;3.58;1.85;;;;;;;;;;5034211;28;20049;-39
2022/08/06 01:31:45;;;;;;;7.10;1.92;;;;;;;;;;5023627;28;20049;-39
2022/08/06 01:34:19;;;;;;;3.55;1.98;;;;;;;;;;5024074;28;20050;-39
2022/08/06 01:36:51;;;;;;;4.75;1.90;;;;;;;;;;5033474;28;20056;-39
2022/08/06 01:39:28;;;;;;;5.32;1.90;;;;;;;;;;5034253;28;20057;-39
2022/08/06 01:41:56;;;;;;;3.88;1.80;;;;;;;;;;5033819;28;20084;-39
2022/08/06 01:44:40;;;;;;;3.67;1.45;;;;;;;;;;5034055;28;20068;-39
2022/08/06 01:47:11;;;;;;;3.65;1.55;;;;;;;;;;5034700;28;20045;-38
2022/08/06 01:49:44;;;;;;;6.57;1.90;;;;;;;;;;5034438;28;20114;-39
2022/08/06 01:52:14;;;;;;;4.72;1.50;;;;;;;;;;5034274;28;20099;-39
2022/08/06 01:54:47;;;;;;;4.38;1.40;;;;;;;;;;5034363;28;20084;-38
2022/08/06 01:57:23;;;;;;;6.30;1.35;;;;;;;;;;5033847;28;20084;-38
2022/08/06 01:59:57;;;;;;;4.38;1.00;;;;;;;;;;5034875;28;20049;-39
2022/08/06 02:02:26;;;;;;;4.93;1.38;;;;;;;;;;5033909;28;20053;-39
2022/08/06 02:04:55;;;;;;;3.08;1.30;;;;;;;;;;5033426;28;20056;-39
2022/08/06 02:07:26;;;;;;;8.15;1.33;;;;;;;;;;5013397;28;20379;-40
2022/08/06 02:10:03;;;;;;;4.32;1.10;;;;;;;;;;5013495;28;20062;-39
2022/08/06 02:12:31;;;;;;;2.78;1.10;;;;;;;;;;5013534;28;20085;-38
2022/08/06 02:15:02;;;;;;;4.63;1.13;;;;;;;;;;5025464;28;20057;-38
2022/08/06 02:17:30;;;;;;;3.50;1.02;;;;;;;;;;5033468;28;20045;-38
2022/08/06 02:20:01;;;;;;;3.85;1.30;;;;;;;;;;5033016;28;20061;-37
2022/08/06 02:22:32;;;;;;;5.05;1.13;;;;;;;;;;5033217;28;20150;-37
2022/08/06 02:25:04;;;;;;;4.93;0.90;;;;;;;;;;5032937;28;20497;-38
2022/08/06 02:27:33;;;;;;;2.40;0.90;;;;;;;;;;5024109;28;20108;-38
2022/08/06 02:30:10;;;;;;;3.67;0.90;;;;;;;;;;5013379;28;20745;-38
2022/08/06 02:32:37;;;;;;;2.30;1.00;;;;;;;;;;5032580;28;20140;-38
2022/08/06 02:35:13;;;;;;;5.75;1.08;;;;;;;;;;5033269;28;20054;-37
2022/08/06 02:37:43;;;;;;;5.10;0.90;;;;;;;;;;5033057;28;20046;-40
2022/08/06 02:40:19;;;;;;;5.75;1.15;;;;;;;;;;5032955;28;20054;-38
2022/08/06 02:42:54;;;;;;;3.10;1.20;;;;;;;;;;5033292;28;20085;-38
2022/08/06 02:45:24;;;;;;;3.13;1.00;;;;;;;;;;5032639;28;20060;-38
2022/08/06 02:47:55;;;;;;;5.82;1.20;;;;;;;;;;5032997;28;20041;-38
2022/08/06 02:50:35;;;;;;;1.83;0.77;;;;;;;;;;5033348;28;20061;-38
2022/08/06 02:53:11;;;;;;;2.70;0.70;;;;;;;;;;5019340;28;20485;-38
2022/08/06 02:55:48;;;;;;;2.20;0.60;;;;;;;;;;5013390;28;20054;-38
2022/08/06 02:58:26;;;;;;;1.98;0.80;;;;;;;;;;5013162;28;20050;-38
2022/08/06 03:01:08;;;;;;;2.92;0.90;;;;;;;;;;5013430;28;20058;-38
2022/08/06 03:03:37;;;;;;;3.70;0.80;;;;;;;;;;5013120;28;20057;-39
2022/08/06 03:06:18;;;;;;;2.20;0.65;;;;;;;;;;5013105;28;20065;-40
2022/08/06 03:08:48;;;;;;;1.60;0.70;;;;;;;;;;5015909;28;20379;-40
2022/08/06 03:11:17;;;;;;;1.25;0.57;;;;;;;;;;5016509;28;20182;-39
2022/08/06 03:13:46;;;;;;;3.95;0.60;;;;;;;;;;5018738;28;20053;-38
2022/08/06 03:16:17;;;;;;;3.20;0.93;;;;;;;;;;5036038;28;20148;-38
2022/08/06 03:18:48;;;;;;;4.30;0.88;;;;;;;;;;5035937;28;20057;-39
2022/08/06 03:21:18;;;;;;;3.17;0.90;;;;;;;;;;5035762;28;20054;-39
2022/08/06 03:23:55;;;;;;;1.58;0.80;;;;;;;;;;5035804;28;20379;-40
2022/08/06 03:26:24;;;;;;;2.65;0.90;;;;;;;;;;5036224;28;20132;-38
2022/08/06 03:28:52;;;;;;;3.15;0.90;;;;;;;;;;5016561;28;20062;-38
2022/08/06 03:31:35;;;;;;;5.97;0.85;;;;;;;;;;5024481;28;20042;-38
2022/08/06 03:34:05;;;;;;;2.25;0.80;;;;;;;;;;5016244;28;20458;-38
2022/08/06 03:36:32;;;;;;;1.88;1.02;;;;;;;;;;5025203;28;20050;-39
2022/08/06 03:39:02;;;;;;;1.65;0.80;;;;;;;;;;5036132;28;20060;-39
2022/08/06 03:41:38;;;;;;;2.95;0.80;;;;;;;;;;5035990;28;20056;-38
2022/08/06 03:44:08;;;;;;;2.17;0.70;;;;;;;;;;5035967;28;20045;-38
2022/08/06 03:46:38;;;;;;;1.90;0.50;;;;;;;;;;5022056;28;20157;-38
2022/08/06 03:49:16;;;;;;;1.95;0.60;;;;;;;;;;5016410;28;20057;-39
2022/08/06 03:51:43;;;;;;;1.95;0.60;;;;;;;;;;5018210;28;20181;-38
2022/08/06 03:54:11;;;;;;;4.55;0.85;;;;;;;;;;5036008;28;20046;-39
2022/08/06 03:56:48;;;;;;;2.05;0.57;;;;;;;;;;5035552;28;20529;-38
2022/08/06 03:59:18;;;;;;;2.70;0.73;;;;;;;;;;5035394;28;20548;-38
2022/08/06 04:02:01;;;;;;;6.47;1.38;;;;;;;;;;5027671;28;20072;-38
2022/08/06 04:04:38;;;;;;;1.00;0.57;;;;;;;;;;5023885;28;20077;-38
2022/08/06 04:07:08;;;;;;;5.47;0.80;;;;;;;;;;5024927;28;20038;-38
2022/08/06 04:09:35;;;;;;;2.88;0.82;;;;;;;;;;5023408;28;20050;-38
2022/08/06 04:12:03;;;;;;;1.73;0.50;;;;;;;;;;5026021;28;20489;-39
2022/08/06 04:14:32;;;;;;;3.47;0.70;;;;;;;;;;5024686;28;20058;-39
2022/08/06 04:17:06;;;;;;;4.97;0.63;;;;;;;;;;5023002;28;20042;-38
2022/08/06 04:19:37;;;;;;;2.92;0.68;;;;;;;;;;5019442;28;20054;-39
2022/08/06 04:22:05;;;;;;;3.58;0.90;;;;;;;;;;5035752;28;20054;-39
2022/08/06 04:24:31;;;;;;;1.90;0.60;;;;;;;;;;5034932;28;20541;-39
2022/08/06 04:27:02;;;;;;;2.42;0.77;;;;;;;;;;5034917;28;20049;-39
2022/08/06 04:29:29;;;;;;;2.58;0.70;;;;;;;;;;5033786;28;20041;-38
2022/08/06 04:31:59;;;;;;;1.95;0.50;;;;;;;;;;5021327;28;20136;-38
2022/08/06 04:34:35;;;;;;;3.10;0.70;;;;;;;;;;5015026;28;20053;-38
2022/08/06 04:37:05;;;;;;;4.72;0.98;;;;;;;;;;5028281;28;20080;-39
2022/08/06 04:39:35;;;;;;;1.98;0.60;;;;;;;;;;5034659;28;20049;-38
2022/08/06 04:42:06;;;;;;;3.20;1.00;;;;;;;;;;5035058;28;20058;-38
2022/08/06 04:44:42;;;;;;;1.70;0.68;;;;;;;;;;5027806;28;20502;-40
2022/08/06 04:47:12;;;;;;;1.02;0.52;;;;;;;;;;5013255;28;20045;-40
2022/08/06 04:49:49;;;;;;;3.10;0.60;;;;;;;;;;5014780;28;20053;-40
2022/08/06 04:52:25;;;;;;;2.13;0.75;;;;;;;;;;5014957;28;20096;-40
2022/08/06 04:54:53;;;;;;;2.70;0.90;;;;;;;;;;5024295;28;20140;-39
2022/08/06 04:57:21;;;;;;;3.70;0.75;;;;;;;;;;5034288;28;20052;-40
2022/08/06 04:59:51;;;;;;;7.00;0.80;;;;;;;;;;5034605;28;20057;-40
2022/08/06 05:02:21;;;;;;;2.45;0.70;;;;;;;;;;5034217;28;20134;-41
2022/08/06 05:04:58;;;;;;;3.90;0.70;;;;;;;;;;5035237;28;20107;-39
2022/08/06 05:07:30;;;;;;;1.00;0.50;;;;;;;;;;5034551;28;20049;-40
2022/08/06 05:10:01;;;;;;;2.13;0.50;;;;;;;;;;5033749;28;20053;-40
2022/08/06 05:12:33;;;;;;;1.70;0.60;;;;;;;;;;5033942;28;20053;-41
2022/08/06 05:15:02;;;;;;;1.90;0.80;;;;;;;;;;5029208;28;20053;-39
2022/08/06 05:17:38;;;;;;;5.13;0.70;;;;;;;;;;5033708;28;20041;-38
2022/08/06 05:20:12;;;;;;;3.30;0.70;;;;;;;;;;5021199;28;20060;-39
2022/08/06 05:22:44;;;;;;;6.07;0.77;;;;;;;;;;5026555;28;20052;-40
2022/08/06 05:25:11;;;;;;;1.55;0.57;;;;;;;;;;5021261;28;20059;-40
2022/08/06 05:27:48;;;;;;;1.23;0.60;;;;;;;;;;5027095;28;20052;-40
2022/08/06 05:30:17;;;;;;;2.45;0.60;;;;;;;;;;5033261;28;20141;-40
2022/08/06 05:32:44;;;;;;;2.63;0.55;;;;;;;;;;5032805;28;20548;-39
2022/08/06 05:35:22;;;;;;;1.33;0.50;;;;;;;;;;5033378;28;20049;-39
2022/08/06 05:37:53;;;;;;;3.63;0.90;;;;;;;;;;5032997;28;20144;-40
2022/08/06 05:40:22;;;;;;;1.33;0.63;;;;;;;;;;5033580;28;20500;-40
2022/08/06 05:42:49;;;;;;;3.75;0.70;;;;;;;;;;5033938;28;20049;-40
2022/08/06 05:45:19;;;;;;;1.92;0.60;;;;;;;;;;5033682;28;20045;-40
2022/08/06 05:47:50;;;;;;;3.05;0.80;;;;;;;;;;5033328;28;20446;-40
2022/08/06 05:50:22;;;;;;;3.70;1.17;;;;;;;;;;5033578;28;20545;-40
2022/08/06 05:52:54;;;;;;;1.27;0.60;;;;;;;;;;5033471;28;20069;-40
2022/08/06 05:55:23;;;;;;;2.67;0.52;;;;;;;;;;5031338;28;20520;-39
2022/08/06 05:57:54;;;;;;;2.00;0.68;;;;;;;;;;5032352;28;20073;-39
2022/08/06 06:00:33;;;;;;;4.25;0.75;;;;;;;;;;5033358;28;20060;-39
2022/08/06 06:03:01;;;;;;;1.85;0.80;;;;;;;;;;5033293;28;20064;-40
2022/08/06 06:05:38;;;;;;;2.15;0.82;;;;;;;;;;5031956;28;20061;-41
2022/08/06 06:08:06;;;;;;;2.50;0.60;;;;;;;;;;5013511;28;20045;-41
2022/08/06 06:10:35;;;;;;;2.03;0.40;;;;;;;;;;5013777;28;20054;-39
2022/08/06 06:13:12;;;;;;;2.60;0.75;;;;;;;;;;5013466;28;20054;-39
2022/08/06 06:15:45;;;;;;;1.33;0.50;;;;;;;;;;5031273;28;20065;-40
2022/08/06 06:18:20;;;;;;;2.33;0.80;;;;;;;;;;5032660;28;20044;-39
2022/08/06 06:20:56;;;;;;;4.78;0.85;;;;;;;;;;5033211;28;20057;-40
2022/08/06 06:23:26;;;;;;;4.00;0.90;;;;;;;;;;5033073;28;20060;-39
2022/08/06 06:25:58;;;;;;;2.28;0.55;;;;;;;;;;5033066;28;20477;-39
2022/08/06 06:28:27;;;;;;;2.05;0.60;;;;;;;;;;5032916;28;20060;-39
2022/08/06 06:30:57;;;;;;;3.65;0.47;;;;;;;;;;5033339;28;20057;-41
2022/08/06 06:33:28;;;;;;;1.98;0.60;;;;;;;;;;5032509;28;20107;-38
2022/08/06 06:36:00;;;;;;;1.73;0.60;;;;;;;;;;5032982;28;20393;-39
2022/08/06 06:38:32;;;;;;;4.03;0.70;;;;;;;;;;5033147;28;20045;-39
2022/08/06 06:41:01;;;;;;;3.00;0.60;;;;;;;;;;5033446;28;20049;-39
2022/08/06 06:43:32;;;;;;;1.10;0.50;;;;;;;;;;5035556;28;20065;-39
2022/08/06 06:46:03;;;;;;;1.92;0.60;;;;;;;;;;5036879;28;20060;-39
2022/08/06 06:48:36;;;;;;;5.50;0.90;;;;;;;;;;5036639;28;20068;-39
2022/08/06 06:51:07;;;;;;;0.73;0.50;;;;;;;;;;5036726;28;20053;-40
2022/08/06 06:53:38;;;;;;;3.20;0.50;;;;;;;;;;5035500;28;20061;-40
2022/08/06 06:56:08;;;;;;;1.85;0.70;;;;;;;;;;5035475;28;20099;-39
2022/08/06 06:58:37;;;;;;;1.85;0.85;;;;;;;;;;5036771;28;20057;-39
2022/08/06 07:01:05;;;;;;;1.85;0.50;;;;;;;;;;5036087;28;20127;-39
2022/08/06 07:03:33;;;;;;;3.10;0.70;;;;;;;;;;5031109;28;20088;-40
2022/08/06 07:06:05;;;;;;;2.90;0.57;;;;;;;;;;5035407;28;20049;-39
2022/08/06 07:08:40;;;;;;;4.75;0.90;;;;;;;;;;5027428;28;20060;-39
2022/08/06 07:11:11;;;;;;;2.45;0.80;;;;;;;;;;5035487;28;20369;-38
2022/08/06 07:13:39;;;;;;;2.45;0.85;;;;;;;;;;5036043;28;20115;-38
2022/08/06 07:16:06;;;;;;;6.13;0.77;;;;;;;;;;5034831;28;20381;-39
2022/08/06 07:18:35;;;;;;;2.72;0.60;;;;;;;;;;5035036;28;20092;-38
2022/08/06 07:21:04;;;;;;;2.72;0.40;;;;;;;;;;5034267;28;20095;-38
2022/08/06 07:23:32;;;;;;;2.83;0.80;;;;;;;;;;5035687;28;20060;-39
2022/08/06 07:26:03;;;;;;;3.42;0.57;;;;;;;;;;5035533;28;20049;-39
2022/08/06 07:28:30;;;;;;;2.67;0.52;;;;;;;;;;5035527;28;20045;-40
2022/08/06 07:30:59;;;;;;;1.75;0.50;;;;;;;;;;5035840;28;20063;-39
2022/08/06 07:33:27;;;;;;;1.75;0.80;;;;;;;;;;5033395;28;20045;-39
2022/08/06 07:35:54;;;;;;;2.55;0.80;;;;;;;;;;5029857;28;20641;-38
2022/08/06 07:38:23;;;;;;;4.28;0.70;;;;;;;;;;5035966;28;20050;-39
2022/08/06 07:40:52;;;;;;;3.10;0.60;;;;;;;;;;5036252;28;20049;-39
2022/08/06 07:43:25;;;;;;;2.60;0.60;;;;;;;;;;5035452;28;20135;-40
2022/08/06 07:45:55;;;;;;;2.33;0.75;;;;;;;;;;5035399;28;20085;-40
2022/08/06 07:48:31;;;;;;;3.30;0.70;;;;;;;;;;5034416;28;20145;-39
2022/08/06 07:51:08;;;;;;;3.38;0.65;;;;;;;;;;5032571;28;20053;-39
2022/08/06 07:53:36;;;;;;;3.88;0.60;;;;;;;;;;5034572;28;20057;-39
2022/08/06 07:56:04;;;;;;;1.35;0.50;;;;;;;;;;5028717;28;20053;-39
2022/08/06 07:58:47;;;;;;;3.88;0.70;;;;;;;;;;5026174;28;20058;-39
2022/08/06 08:01:13;;;;;;;2.05;0.70;;;;;;;;;;5018678;28;20141;-39
2022/08/06 08:06:31;;;;;;;1.77;0.50;;;;;;;;;;5023573;28;20059;-39
2022/08/06 08:09:02;;;;;;;3.42;0.70;;;;;;;;;;5032255;28;20046;-39
2022/08/06 08:11:31;;;;;;;1.60;0.70;;;;;;;;;;5029488;28;20050;-39
2022/08/06 08:14:05;;;;;;;3.47;0.80;;;;;;;;;;5028303;28;20057;-40
2022/08/06 08:16:36;;;;;;;4.93;0.63;;;;;;;;;;5027296;28;20140;-39
2022/08/06 08:19:06;;;;;;;1.92;0.70;;;;;;;;;;5030680;28;20054;-39
2022/08/06 08:21:37;;;;;;;4.90;0.95;;;;;;;;;;5032298;28;20065;-40
2022/08/06 08:24:07;;;;;;;1.13;0.52;;;;;;;;;;5024900;28;20137;-39
2022/08/06 08:26:34;;;;;;;5.63;1.00;;;;;;;;;;5032150;28;20148;-38
2022/08/06 08:29:06;;;;;;;2.22;0.70;;;;;;;;;;5028382;28;20057;-39
2022/08/06 08:31:37;;;;;;;1.27;0.60;;;;;;;;;;5034099;28;20053;-40
2022/08/06 08:34:03;;;;;;;4.15;0.70;;;;;;;;;;5030862;28;20050;-39
2022/08/06 08:36:30;;;;;;;2.65;0.70;;;;;;;;;;5029080;28;20045;-40
2022/08/06 08:38:58;;;;;;;4.30;0.63;;;;;;;;;;5026551;28;20046;-39
2022/08/06 08:41:35;;;;;;;5.90;1.05;;;;;;;;;;5033772;28;20477;-39
2022/08/06 08:44:08;;;;;;;2.58;0.63;;;;;;;;;;5028383;28;20089;-39
2022/08/06 08:46:37;;;;;;;3.85;0.80;;;;;;;;;;5029710;28;20050;-40
2022/08/06 08:49:05;;;;;;;2.30;1.00;;;;;;;;;;5034194;28;20045;-39
2022/08/06 08:51:34;;;;;;;6.10;0.85;;;;;;;;;;5032456;28;20049;-38
2022/08/06 08:54:05;;;;;;;3.33;0.90;;;;;;;;;;5030723;28;20446;-40
2022/08/06 08:56:33;;;;;;;6.80;0.77;;;;;;;;;;5025254;28;20068;-39
2022/08/06 08:59:00;;;;;;;1.27;0.40;;;;;;;;;;5033254;28;20045;-39
2022/08/06 09:01:40;;;;;;;3.80;1.08;;;;;;;;;;5032211;28;20482;-40
2022/08/06 09:04:08;;;;;;;2.70;0.50;;;;;;;;;;5033754;28;20059;-40
2022/08/06 09:06:39;;;;;;;6.47;0.60;;;;;;;;;;5029260;28;20493;-40
2022/08/06 09:09:09;;;;;;;2.00;0.50;;;;;;;;;;5034420;28;20056;-38
2022/08/06 09:11:39;;;;;;;1.58;0.52;;;;;;;;;;5034440;28;20128;-39
2022/08/06 09:14:06;;;;;;;2.80;0.60;;;;;;;;;;5032638;28;20054;-37
2022/08/06 09:16:39;;;;;;;2.47;0.60;;;;;;;;;;5033314;28;20063;-39
2022/08/06 09:19:08;;;;;;;2.65;0.70;;;;;;;;;;5028470;28;20064;-40
2022/08/06 09:21:37;;;;;;;3.38;0.65;;;;;;;;;;5034210;28;20053;-39
2022/08/06 09:24:07;;;;;;;1.40;0.65;;;;;;;;;;5032532;28;20096;-41
2022/08/06 09:26:36;;;;;;;1.38;0.60;;;;;;;;;;5032919;28;20045;-39
2022/08/06 09:29:15;;;;;;;3.38;0.60;;;;;;;;;;5027581;28;20049;-39
2022/08/06 09:31:44;;;;;;;2.15;0.50;;;;;;;;;;5027663;28;20064;-38
2022/08/06 09:34:12;;;;;;;3.78;0.47;;;;;;;;;;5021964;28;20064;-40
2022/08/06 09:36:42;;;;;;;2.53;0.50;;;;;;;;;;5020009;28;20202;-41
2022/08/06 09:39:10;;;;;;;1.73;0.50;;;;;;;;;;5030600;28;20071;-40
2022/08/06 09:41:48;;;;;;;3.92;0.65;;;;;;;;;;5020180;28;20144;-40
2022/08/06 09:44:16;;;;;;;2.10;0.63;;;;;;;;;;5023976;28;20470;-40
2022/08/06 09:46:50;;;;;;;2.28;0.60;;;;;;;;;;5021138;28;20067;-40
2022/08/06 09:49:21;;;;;;;4.43;0.50;;;;;;;;;;5002205;28;20407;-40
2022/08/06 09:51:49;;;;;;;2.63;0.57;;;;;;;;;;5016864;28;20045;-40
2022/08/06 09:54:18;;;;;;;1.25;0.40;;;;;;;;;;5022041;28;20057;-40
2022/08/06 09:56:48;;;;;;;1.30;0.40;;;;;;;;;;5009185;28;20141;-40
2022/08/06 09:59:16;;;;;;;3.42;0.47;;;;;;;;;;5017982;28;20115;-40
2022/08/06 10:01:51;;;;;;;2.03;0.40;;;;;;;;;;5012175;28;20085;-40
2022/08/06 10:04:32;;;;;;;2.22;0.47;;;;;;;;;;5021537;28;20053;-42
2022/08/06 10:07:02;;;;;;;2.10;0.40;;;;;;;;;;5027343;28;20151;-40
2022/08/06 10:09:32;;;;;;;3.10;0.55;;;;;;;;;;5018359;28;20458;-40
2022/08/06 10:12:02;;;;;;;1.63;0.50;;;;;;;;;;5016259;28;20053;-40
2022/08/06 10:14:38;;;;;;;1.92;0.40;;;;;;;;;;5023517;28;20404;-40
2022/08/06 10:17:06;;;;;;;1.90;0.38;;;;;;;;;;5025994;28;20085;-40
2022/08/06 10:19:36;;;;;;;1.80;0.30;;;;;;;;;;5012367;28;20041;-40
2022/08/06 10:22:07;;;;;;;1.00;0.28;;;;;;;;;;5031670;28;20049;-40
2022/08/06 10:24:36;;;;;;;3.70;0.50;;;;;;;;;;5020390;28;20116;-40
2022/08/06 10:27:09;;;;;;;2.13;1.30;;;;;;;;;;5020136;28;20060;-40
2022/08/06 10:29:42;;;;;;;1.80;0.77;;;;;;;;;;5018387;28;20484;-40
2022/08/06 10:32:17;;;;;;;6.60;0.82;;;;;;;;;;5022288;28;20050;-40
2022/08/06 10:34:45;;;;;;;;;;;;;;;;;;5021441;28;20054;-40
2022/08/06 10:37:16;;;;;;;1.80;0.43;;;;;;;;;;5021765;28;20363;-40
2022/08/06 10:39:54;;;;;;;2.20;0.65;;;;;;;;;;5005664;28;20055;-40
2022/08/06 10:42:24;;;;;;;2.08;0.50;;;;;;;;;;5008533;28;20053;-40
2022/08/06 10:44:52;;;;;;;3.80;0.65;;;;;;;;;;5003263;28;20049;-40
2022/08/06 10:47:22;;;;;;;3.05;0.80;;;;;;;;;;5010335;28;20058;-40
2022/08/06 10:49:50;;;;;;;4.00;1.00;;;;;;;;;;5003159;28;20053;-40
2022/08/06 10:52:27;;;;;;;5.88;1.05;;;;;;;;;;5017787;28;20053;-41
2022/08/06 10:54:56;;;;;;;2.38;0.60;;;;;;;;;;5024660;28;20076;-40
2022/08/06 10:57:25;;;;;;;2.20;0.45;;;;;;;;;;4998155;28;20517;-40
2022/08/06 10:59:54;;;;;;;1.45;0.65;;;;;;;;;;5017099;28;20061;-40
2022/08/06 11:02:28;;;;;;;0.93;0.40;;;;;;;;;;5015875;28;20046;-40
2022/08/06 11:04:56;;;;;;;1.92;0.40;;;;;;;;;;5012476;28;20137;-40
2022/08/06 11:07:34;;;;;;;0.95;0.30;;;;;;;;;;5026366;28;20064;-40
2022/08/06 11:10:10;;;;;;;1.00;0.30;;;;;;;;;;5020904;28;20057;-39
2022/08/06 11:12:49;;;;;;;2.20;0.38;;;;;;;;;;5015675;28;20046;-40
2022/08/06 11:15:15;;;;;;;0.57;0.28;;;;;;;;;;5017202;28;20478;-40
2022/08/06 11:17:47;;;;;;;1.02;0.40;;;;;;;;;;5023833;28;20065;-40
2022/08/06 11:20:30;;;;;;;5.00;0.40;;;;;;;;;;5027074;28;20412;-39
2022/08/06 11:22:59;;;;;;;0.93;0.40;;;;;;;;;;5024940;28;20053;-39
2022/08/06 11:25:38;;;;;;;1.27;0.30;;;;;;;;;;5012955;28;20054;-40
2022/08/06 11:28:07;;;;;;;2.95;0.38;;;;;;;;;;5011691;28;20124;-40
2022/08/06 11:30:38;;;;;;;0.57;0.30;;;;;;;;;;5014346;28;20042;-39
2022/08/06 11:33:09;;;;;;;1.60;0.30;;;;;;;;;;5017879;28;20099;-40
2022/08/06 11:35:45;;;;;;;2.28;0.52;;;;;;;;;;5019640;28;20542;-40
2022/08/06 11:38:14;;;;;;;1.98;0.52;;;;;;;;;;5024470;28;20049;-40
2022/08/06 11:41:04;;;;;;;1.95;0.52;;;;;;;;;;5018225;28;20045;-40
2022/08/06 11:43:48;;;;;;;1.08;0.20;;;;;;;;;;5017688;28;20440;-40
2022/08/06 11:46:18;;;;;;;3.30;0.57;;;;;;;;;;5019888;28;20054;-39
2022/08/06 11:49:03;;;;;;;1.20;0.40;;;;;;;;;;5015330;28;20480;-39
2022/08/06 11:51:40;;;;;;;3.20;0.40;;;;;;;;;;5017094;28;20054;-40
2022/08/06 11:54:19;;;;;;;2.72;0.30;;;;;;;;;;5014044;28;20136;-40
2022/08/06 11:57:07;;;;;;;1.55;0.32;;;;;;;;;;5007967;28;20085;-40
2022/08/06 11:59:34;;;;;;;4.28;0.40;;;;;;;;;;5009182;28;20142;-40
2022/08/06 12:02:05;;;;;;;1.10;0.30;;;;;;;;;;5023734;28;20557;-39
2022/08/06 12:04:44;;;;;;;1.45;0.32;;;;;;;;;;5016738;28;20463;-39
2022/08/06 12:07:21;;;;;;;1.98;0.38;;;;;;;;;;5014766;28;20060;-39
2022/08/06 12:09:59;;;;;;;1.50;0.30;;;;;;;;;;5021862;28;20068;-39
2022/08/06 12:12:33;;;;;;;1.85;0.38;;;;;;;;;;5018640;28;20137;-39
2022/08/06 12:15:09;;;;;;;1.13;0.32;;;;;;;;;;5016771;28;20465;-39
2022/08/06 12:17:37;;;;;;;0.85;0.30;;;;;;;;;;5032083;28;20049;-40
2022/08/06 12:20:04;;;;;;;1.40;0.40;;;;;;;;;;5025488;28;20053;-39
2022/08/06 12:22:34;;;;;;;1.83;0.38;;;;;;;;;;5026690;28;20058;-39
2022/08/06 12:25:03;;;;;;;1.42;0.43;;;;;;;;;;5024723;28;20161;-38
2022/08/06 12:27:31;;;;;;;4.22;0.43;;;;;;;;;;5021306;28;20060;-39
2022/08/06 12:30:01;;;;;;;2.33;0.50;;;;;;;;;;5015827;28;20077;-38
2022/08/06 12:32:29;;;;;;;3.83;0.60;;;;;;;;;;5029218;28;20454;-39
2022/08/06 12:35:05;;;;;;;2.72;0.50;;;;;;;;;;5017708;28;20058;-40
2022/08/06 12:37:41;;;;;;;2.78;0.30;;;;;;;;;;5013129;28;20053;-39
2022/08/06 12:40:32;;;;;;;2.50;0.55;;;;;;;;;;5013126;28;20046;-39
2022/08/06 12:43:10;;;;;;;1.85;0.38;;;;;;;;;;5023787;28;20049;-39
2022/08/06 12:45:50;;;;;;;2.15;0.40;;;;;;;;;;5018669;28;20714;-39
2022/08/06 12:48:17;;;;;;;1.17;0.40;;;;;;;;;;5024596;28;20100;-39
2022/08/06 12:50:47;;;;;;;3.08;0.60;;;;;;;;;;5018963;28;20072;-39
2022/08/06 12:53:18;;;;;;;1.27;0.45;;;;;;;;;;5017780;28;20378;-39
2022/08/06 12:55:55;;;;;;;1.50;0.45;;;;;;;;;;5014127;28;20054;-39
2022/08/06 12:58:24;;;;;;;1.70;0.47;;;;;;;;;;5022046;28;20164;-41
2022/08/06 13:00:54;;;;;;;3.00;0.40;;;;;;;;;;5026333;28;20046;-38
2022/08/06 13:03:24;;;;;;;1.45;0.40;;;;;;;;;;5020655;28;20057;-39
2022/08/06 13:05:53;;;;;;;1.05;0.30;;;;;;;;;;5015052;28;20477;-39
2022/08/06 13:08:21;;;;;;;3.92;0.52;;;;;;;;;;5018971;28;20049;-40
2022/08/06 13:10:52;;;;;;;4.60;0.45;;;;;;;;;;5021411;28;20057;-40
2022/08/06 13:13:21;;;;;;;1.98;0.40;;;;;;;;;;5015433;28;20061;-40
2022/08/06 13:16:00;;;;;;;0.95;0.30;;;;;;;;;;5020348;28;20420;-39
2022/08/06 13:18:31;;;;;;;2.95;0.50;;;;;;;;;;5017620;28;20058;-39
2022/08/06 13:20:57;;;;;;;1.15;0.40;;;;;;;;;;5013960;28;20050;-39
2022/08/06 13:23:40;;;;;;;2.42;0.40;;;;;;;;;;5027414;28;20369;-39
2022/08/06 13:26:26;;;;;;;4.78;0.65;;;;;;;;;;5004877;28;20092;-39
2022/08/06 13:29:14;;;;;;;3.38;0.40;;;;;;;;;;5025003;28;20049;-40
2022/08/06 13:31:45;;;;;;;3.03;0.52;;;;;;;;;;5010870;28;20124;-39
2022/08/06 13:34:17;;;;;;;4.43;0.38;;;;;;;;;;5020647;28;20054;-39
2022/08/06 13:36:48;;;;;;;2.10;0.40;;;;;;;;;;5020082;28;20092;-39
2022/08/06 13:39:33;;;;;;;3.17;0.50;;;;;;;;;;5023832;28;20061;-39
2022/08/06 13:42:11;;;;;;;2.15;0.40;;;;;;;;;;5020191;28;20366;-40
2022/08/06 13:44:48;;;;;;;0.70;0.40;;;;;;;;;;5008031;28;20050;-39
2022/08/06 13:47:26;;;;;;;1.15;0.43;;;;;;;;;;5018156;28;20081;-39
2022/08/06 13:49:55;;;;;;;5.78;0.60;;;;;;;;;;5014703;28;20056;-38
2022/08/06 13:52:24;;;;;;;2.60;0.50;;;;;;;;;;5015685;28;20334;-38
2022/08/06 13:54:54;;;;;;;3.35;0.40;;;;;;;;;;5020934;28;20060;-38
2022/08/06 13:57:35;;;;;;;1.13;0.55;;;;;;;;;;5023176;28;20134;-39
2022/08/06 14:00:06;;;;;;;2.55;0.50;;;;;;;;;;5013459;28;20443;-40
2022/08/06 14:02:33;;;;;;;0.98;0.47;;;;;;;;;;5011945;28;20076;-40
2022/08/06 14:05:03;;;;;;;3.20;0.57;;;;;;;;;;5021854;28;20076;-40
2022/08/06 14:07:32;;;;;;;2.53;0.50;;;;;;;;;;5019648;28;20050;-39
2022/08/06 14:10:02;;;;;;;1.40;0.50;;;;;;;;;;5017377;28;20045;-40
2022/08/06 14:12:39;;;;;;;2.20;0.50;;;;;;;;;;5018826;28;20049;-39
2022/08/06 14:15:08;;;;;;;0.80;0.40;;;;;;;;;;5023299;28;20053;-39
2022/08/06 14:17:36;;;;;;;1.83;0.50;;;;;;;;;;5021144;28;20136;-39
2022/08/06 14:20:06;;;;;;;1.90;0.57;;;;;;;;;;5019128;28;20116;-39
2022/08/06 14:22:36;;;;;;;1.98;0.75;;;;;;;;;;5023648;28;20045;-40
2022/08/06 14:25:04;;;;;;;2.53;0.52;;;;;;;;;;5017043;28;20053;-40
2022/08/06 14:27:40;;;;;;;2.83;0.60;;;;;;;;;;5010215;28;20117;-40
2022/08/06 14:30:08;;;;;;;1.42;0.52;;;;;;;;;;5027304;28;20049;-39
2022/08/06 14:32:35;;;;;;;1.90;0.47;;;;;;;;;;5011671;28;20061;-38
2022/08/06 14:35:02;;;;;;;3.15;0.50;;;;;;;;;;5016522;28;20064;-38
2022/08/06 14:37:31;;;;;;;3.22;0.68;;;;;;;;;;5022176;28;20064;-38
2022/08/06 14:39:59;;;;;;;2.03;0.60;;;;;;;;;;5003458;28;20058;-40
2022/08/06 14:45:12;;;;;;;;;;;;;;;;;;5015458;28;20057;-40
2022/08/06 14:47:43;;;;;;;2.55;0.70;;;;;;;;;;5018740;28;19930;-39
2022/08/06 14:50:12;;;;;;;3.45;0.73;;;;;;;;;;5022400;28;20054;-39
2022/08/06 14:52:43;;;;;;;1.77;0.40;;;;;;;;;;5015493;28;20057;-39
2022/08/06 14:55:11;;;;;;;2.92;0.50;;;;;;;;;;5024874;28;20060;-39
2022/08/06 14:57:40;;;;;;;2.50;0.50;;;;;;;;;;5025884;28;20057;-39
2022/08/06 15:00:11;;;;;;;5.65;0.60;;;;;;;;;;5023561;28;20060;-40
2022/08/06 15:02:41;;;;;;;0.68;0.38;;;;;;;;;;5017773;28;20049;-39
2022/08/06 15:05:12;;;;;;;2.08;0.40;;;;;;;;;;5026088;28;20065;-39
2022/08/06 15:07:41;;;;;;;3.20;0.50;;;;;;;;;;5016755;28;20073;-41
2022/08/06 15:10:09;;;;;;;3.40;0.70;;;;;;;;;;5026988;28;20132;-39
2022/08/06 15:12:37;;;;;;;1.67;0.60;;;;;;;;;;5006900;28;20058;-40
2022/08/06 15:15:06;;;;;;;2.45;0.65;;;;;;;;;;5020469;28;20067;-39